TimePDT,TemperatureF,Dew PointF,Humidity,Sea Level PressureIn,VisibilityMPH,Wind Direction,Wind SpeedMPH,Gust SpeedMPH,PrecipitationIn,Events,Conditions,WindDirDegrees,DateUTC
12:52 AM,81.0,53.1,38,29.71,10.0,NE,13.8,-,N/A,,Clear,50,2013-07-21 07:52:00
1:52 AM,80.1,55.0,42,29.73,10.0,ENE,6.9,-,N/A,,Clear,70,2013-07-21 08:52:00
2:52 AM,79.0,55.9,45,29.72,10.0,North,4.6,-,N/A,,Clear,360,2013-07-21 09:52:00
3:52 AM,78.1,57.9,50,29.72,10.0,NNE,4.6,-,N/A,,Clear,30,2013-07-21 10:52:00
4:52 AM,77.0,57.0,50,29.72,10.0,ESE,6.9,-,N/A,,Clear,120,2013-07-21 11:52:00
5:52 AM,77.0,59.0,54,29.73,10.0,East,10.4,-,N/A,,Clear,90,2013-07-21 12:52:00
6:52 AM,77.0,59.0,54,29.75,10.0,Calm,Calm,-,N/A,,Clear,0,2013-07-21 13:52:00
7:52 AM,80.1,57.9,47,29.80,10.0,Calm,Calm,-,N/A,,Clear,0,2013-07-21 14:52:00
8:52 AM,84.9,55.9,37,29.80,10.0,Calm,Calm,-,N/A,,Clear,0,2013-07-21 15:52:00
9:52 AM,87.1,53.1,31,29.78,10.0,Calm,Calm,-,N/A,,Clear,0,2013-07-21 16:52:00
10:52 AM,91.9,53.1,27,29.77,10.0,West,4.6,-,N/A,,Clear,270,2013-07-21 17:52:00
11:52 AM,93.9,53.1,25,29.76,10.0,SSW,8.1,-,N/A,,Clear,200,2013-07-21 18:52:00
12:52 PM,98.1,50.0,20,29.75,10.0,SSW,15.0,19.6,N/A,,Clear,210,2013-07-21 19:52:00
1:52 PM,93.0,53.1,26,29.75,10.0,SW,20.7,27.6,N/A,,Clear,220,2013-07-21 20:52:00
2:52 PM,93.0,53.1,26,29.76,10.0,SW,17.3,25.3,N/A,,Clear,220,2013-07-21 21:52:00
3:52 PM,90.0,54.0,29,29.75,10.0,SW,18.4,26.5,N/A,,Clear,220,2013-07-21 22:52:00
4:52 PM,87.1,55.9,35,29.74,10.0,SW,21.9,-,N/A,,Clear,220,2013-07-21 23:52:00
5:52 PM,87.1,57.0,36,29.75,10.0,WSW,13.8,-,N/A,,Clear,240,2013-07-22 00:52:00
6:52 PM,86.0,57.0,37,29.79,10.0,West,10.4,-,N/A,,Clear,270,2013-07-22 01:52:00
7:52 PM,84.0,59.0,43,29.82,10.0,SSW,4.6,-,N/A,,Mostly Cloudy,200,2013-07-22 02:52:00
8:52 PM,82.9,59.0,44,29.83,10.0,SW,8.1,-,N/A,,Clear,220,2013-07-22 03:52:00
9:52 PM,82.0,61.0,49,29.84,10.0,WSW,3.5,-,N/A,,Scattered Clouds,240,2013-07-22 04:52:00
10:52 PM,81.0,61.0,50,29.79,10.0,WSW,4.6,-,N/A,,Clear,240,2013-07-22 05:52:00
11:52 PM,79.0,64.0,60,29.80,10.0,NW,6.9,-,0.00,,Mostly Cloudy,310,2013-07-22 06:52:00